createdAt,value
2022-08-11T00:00:12.842Z,3.20
2022-08-11T00:02:45.277Z,3.08
2022-08-11T00:05:15.519Z,3.23
2022-08-11T00:07:54.865Z,3.13
2022-08-11T00:10:24.567Z,3.13
2022-08-11T00:12:56.895Z,3.65
2022-08-11T00:15:25.278Z,3.20
2022-08-11T00:17:58.683Z,3.30
2022-08-11T00:23:02.645Z,3.30
2022-08-11T00:25:29.843Z,3.20
2022-08-11T00:27:56.383Z,3.35
2022-08-11T00:30:23.691Z,3.38
2022-08-11T00:32:56.262Z,3.53
2022-08-11T00:35:54.595Z,3.60
2022-08-11T00:38:15.029Z,3.50
2022-08-11T00:40:53.328Z,3.38
2022-08-11T00:43:41.733Z,3.58
2022-08-11T00:46:26.714Z,3.35
2022-08-11T00:49:12.127Z,3.53
2022-08-11T00:52:04.909Z,3.50
2022-08-11T00:55:00.030Z,3.58
2022-08-11T01:00:23.310Z,3.60
2022-08-11T01:03:43.820Z,3.63
2022-08-11T01:06:19.474Z,3.70
2022-08-11T01:09:21.002Z,3.70
2022-08-11T01:12:09.645Z,3.50
2022-08-11T01:15:19.803Z,3.50
2022-08-11T01:18:22.036Z,3.55
2022-08-11T01:21:25.544Z,3.50
2022-08-11T01:24:29.214Z,3.50
2022-08-11T01:27:19.692Z,3.50
2022-08-11T01:30:14.109Z,3.80
2022-08-11T01:33:15.117Z,3.88
2022-08-11T01:36:20.557Z,3.47
2022-08-11T01:39:02.429Z,3.50
2022-08-11T01:42:18.462Z,3.80
2022-08-11T01:45:07.877Z,3.58
2022-08-11T01:48:03.803Z,3.60
2022-08-11T01:50:46.519Z,3.70
2022-08-11T01:53:21.977Z,3.38
2022-08-11T01:56:07.917Z,3.65
2022-08-11T01:58:59.996Z,3.83
2022-08-11T02:01:37.730Z,3.83
2022-08-11T02:04:22.135Z,3.80
2022-08-11T02:06:59.536Z,4.00
2022-08-11T02:09:49.465Z,3.60
2022-08-11T02:12:27.470Z,3.80
2022-08-11T02:15:18.329Z,3.60
2022-08-11T02:18:00.446Z,3.60
2022-08-11T02:20:53.240Z,3.92
2022-08-11T02:24:04.533Z,3.90
2022-08-11T02:26:30.588Z,3.75
2022-08-11T02:29:21.353Z,3.90
2022-08-11T02:32:29.716Z,3.80
2022-08-11T02:35:06.435Z,4.20
2022-08-11T02:37:32.944Z,3.75
2022-08-11T02:39:59.509Z,3.97
2022-08-11T02:42:44.673Z,4.30
2022-08-11T02:45:19.938Z,3.95
2022-08-11T02:48:14.365Z,3.80
2022-08-11T02:51:29.024Z,4.00
2022-08-11T02:54:05.462Z,4.10
2022-08-11T02:56:45.863Z,3.97
2022-08-11T02:59:51.096Z,4.13
2022-08-11T03:02:27.821Z,4.13
2022-08-11T03:05:13.626Z,4.20
2022-08-11T03:07:40.120Z,4.38
2022-08-11T03:10:40.652Z,4.30
2022-08-11T03:13:44.410Z,4.30
2022-08-11T03:16:44.751Z,4.30
2022-08-11T03:19:19.412Z,4.38
2022-08-11T03:22:25.032Z,4.32
2022-08-11T03:25:07.874Z,4.38
2022-08-11T03:28:05.871Z,4.00
2022-08-11T03:30:46.705Z,4.13
2022-08-11T03:33:45.518Z,4.32
2022-08-11T03:36:54.458Z,4.28
2022-08-11T03:39:56.599Z,4.10
2022-08-11T03:43:03.585Z,4.10
2022-08-11T03:45:53.527Z,4.00
2022-08-11T03:48:43.522Z,4.32
2022-08-11T03:51:19.794Z,4.45
2022-08-11T03:54:24.028Z,4.45
2022-08-11T03:57:52.182Z,4.28
2022-08-11T04:00:33.811Z,4.38
2022-08-11T04:03:31.685Z,4.47
2022-08-11T04:06:28.437Z,4.50
2022-08-11T04:09:18.749Z,4.25
2022-08-11T04:12:45.672Z,4.10
2022-08-11T04:15:50.656Z,4.60
2022-08-11T04:18:20.067Z,4.38
2022-08-11T04:21:04.804Z,4.60
2022-08-11T04:24:13.016Z,4.43
2022-08-11T04:27:17.376Z,4.70
2022-08-11T04:30:14.905Z,4.43
2022-08-11T04:32:49.422Z,4.75
2022-08-11T04:35:39.234Z,4.80
2022-08-11T04:38:22.860Z,4.32
2022-08-11T04:41:28.022Z,4.40
2022-08-11T04:44:45.511Z,4.60
2022-08-11T04:48:04.323Z,4.97
2022-08-11T04:51:17.462Z,4.68
2022-08-11T04:54:28.321Z,4.70
2022-08-11T04:57:22.351Z,4.50
2022-08-11T05:00:19.274Z,4.85
2022-08-11T05:03:07.483Z,4.63
2022-08-11T05:05:54.637Z,4.45
2022-08-11T05:08:35.470Z,4.90
2022-08-11T05:11:26.582Z,4.47
2022-08-11T05:14:37.056Z,4.80
2022-08-11T05:17:32.908Z,4.80
2022-08-11T05:20:18.181Z,4.63
2022-08-11T05:23:08.242Z,4.47
2022-08-11T05:26:44.508Z,4.40
2022-08-11T05:29:20.386Z,4.50
2022-08-11T05:32:15.095Z,4.60
2022-08-11T05:34:52.881Z,4.53
2022-08-11T05:37:33.360Z,4.00
2022-08-11T05:40:30.143Z,4.35
2022-08-11T05:43:20.883Z,4.15
2022-08-11T05:46:20.745Z,3.90
2022-08-11T05:49:06.979Z,4.00
2022-08-11T05:52:05.730Z,4.03
2022-08-11T05:54:59.426Z,3.90
2022-08-11T05:57:48.807Z,3.95
2022-08-11T06:00:19.445Z,4.00
2022-08-11T06:02:50.149Z,4.00
2022-08-11T06:05:19.667Z,3.70
2022-08-11T06:07:49.986Z,3.95
2022-08-11T06:10:46.684Z,3.90
2022-08-11T06:13:17.369Z,3.97
2022-08-11T06:15:52.010Z,4.00
2022-08-11T06:18:19.800Z,3.70
2022-08-11T06:20:51.410Z,3.92
2022-08-11T06:23:20.420Z,4.28
2022-08-11T06:25:47.419Z,4.10
2022-08-11T06:28:20.635Z,3.78
2022-08-11T06:30:49.005Z,3.70
2022-08-11T06:33:39.616Z,4.00
2022-08-11T06:36:15.783Z,3.70
2022-08-11T06:38:54.434Z,3.70
2022-08-11T06:41:32.659Z,3.70
2022-08-11T06:44:17.030Z,3.60
2022-08-11T06:46:48.208Z,3.58
2022-08-11T06:49:41.868Z,3.70
2022-08-11T06:52:34.479Z,3.80
2022-08-11T06:55:06.538Z,3.63
2022-08-11T06:57:57.624Z,3.80
2022-08-11T07:00:29.101Z,3.65
2022-08-11T07:03:01.323Z,4.00
2022-08-11T07:05:30.699Z,3.35
2022-08-11T07:08:36.074Z,3.25
2022-08-11T07:12:02.843Z,3.40
2022-08-11T07:14:49.749Z,3.45
2022-08-11T07:17:20.684Z,3.58
2022-08-11T07:20:15.408Z,3.30
2022-08-11T07:23:12.752Z,3.30
2022-08-11T07:25:59.378Z,3.65
2022-08-11T07:28:47.249Z,3.50
2022-08-11T07:31:40.666Z,3.38
2022-08-11T07:34:34.284Z,3.65
2022-08-11T07:37:08.630Z,3.20
2022-08-11T07:39:37.928Z,3.75
2022-08-11T07:42:10.559Z,3.40
2022-08-11T07:44:56.503Z,3.70
2022-08-11T07:47:42.240Z,3.70
2022-08-11T07:50:28.628Z,3.50
2022-08-11T07:53:02.169Z,3.47
2022-08-11T07:55:49.548Z,3.50
2022-08-11T07:58:45.422Z,3.40
2022-08-11T08:01:42.871Z,3.60
2022-08-11T08:04:31.622Z,3.42
2022-08-11T08:07:17.444Z,3.63
2022-08-11T08:10:03.624Z,3.47
2022-08-11T08:12:49.880Z,3.40
2022-08-11T08:15:35.967Z,2.95
2022-08-11T08:18:09.887Z,3.30
2022-08-11T08:20:54.932Z,3.38
2022-08-11T08:23:35.027Z,3.20
2022-08-11T08:26:30.363Z,3.17
2022-08-11T08:29:19.085Z,3.40
2022-08-11T08:31:48.427Z,2.88
2022-08-11T08:34:16.435Z,2.97
2022-08-11T08:36:45.798Z,3.30
2022-08-11T08:39:13.456Z,3.33
2022-08-11T08:41:41.091Z,2.85
2022-08-11T08:44:37.229Z,3.10
2022-08-11T08:47:00.629Z,2.80
2022-08-11T08:49:32.971Z,3.00
2022-08-11T08:52:34.553Z,2.90
2022-08-11T08:54:58.066Z,3.00
2022-08-11T08:57:28.821Z,3.20
2022-08-11T08:59:56.764Z,2.85
2022-08-11T09:02:34.806Z,3.03
2022-08-11T09:05:11.437Z,2.85
2022-08-11T09:07:40.569Z,3.00
2022-08-11T09:10:11.956Z,3.00
2022-08-11T09:12:42.655Z,2.80
2022-08-11T09:15:11.693Z,2.92
2022-08-11T09:17:46.010Z,2.83
2022-08-11T09:20:25.085Z,2.85
2022-08-11T09:26:21.287Z,2.70
2022-08-11T09:28:50.057Z,2.85
2022-08-11T09:31:17.859Z,2.85
2022-08-11T09:33:51.483Z,2.92
2022-08-11T09:36:37.416Z,2.60
2022-08-11T09:39:24.051Z,2.90
2022-08-11T09:42:01.250Z,2.80
2022-08-11T09:44:50.522Z,2.78
2022-08-11T09:47:22.262Z,2.90
2022-08-11T09:49:52.618Z,2.90
2022-08-11T09:52:20.502Z,2.97
2022-08-11T09:54:49.482Z,3.00
2022-08-11T09:57:41.102Z,3.00
2022-08-11T10:00:13.204Z,2.75
2022-08-11T10:02:47.193Z,2.58
2022-08-11T10:05:38.703Z,2.80
2022-08-11T10:08:07.506Z,2.40
2022-08-11T10:10:41.314Z,2.50
2022-08-11T10:14:29.371Z,2.60
2022-08-11T10:16:15.613Z,2.72
2022-08-11T10:18:52.344Z,2.70
2022-08-11T10:22:05.451Z,2.60
2022-08-11T10:24:51.129Z,2.93
2022-08-11T10:27:18.390Z,2.63
2022-08-11T10:30:04.330Z,2.70
2022-08-11T10:32:58.887Z,2.95
2022-08-11T10:35:29.752Z,2.60
2022-08-11T10:38:07.599Z,2.83
2022-08-11T10:40:38.899Z,2.60
2022-08-11T10:43:10.463Z,2.80
2022-08-11T10:46:10.705Z,2.63
2022-08-11T10:48:38.570Z,2.60
2022-08-11T10:51:51.894Z,2.55
2022-08-11T10:54:24.218Z,2.63
2022-08-11T10:57:11.387Z,2.60
2022-08-11T10:59:38.239Z,2.60
2022-08-11T11:02:05.392Z,2.40
2022-08-11T11:04:58.308Z,2.92
2022-08-11T11:07:51.411Z,2.50
2022-08-11T11:13:13.209Z,2.63
2022-08-11T11:16:01.074Z,2.50
2022-08-11T11:18:35.814Z,2.67
2022-08-11T11:21:06.717Z,2.60
2022-08-11T11:23:56.941Z,2.30
2022-08-11T11:26:47.079Z,2.40
2022-08-11T11:29:42.810Z,2.50
2022-08-11T11:32:14.566Z,2.50
2022-08-11T11:35:04.475Z,2.42
2022-08-11T11:37:35.527Z,2.70
2022-08-11T11:40:10.603Z,2.65
2022-08-11T11:42:40.985Z,2.97
2022-08-11T11:45:10.126Z,2.85
2022-08-11T11:47:44.451Z,2.45
2022-08-11T11:50:12.775Z,2.40
2022-08-11T11:52:40.817Z,2.33
2022-08-11T11:55:08.398Z,2.45
2022-08-11T11:57:59.063Z,2.50
2022-08-11T12:00:50.402Z,2.40
2022-08-11T12:03:18.121Z,2.85
2022-08-11T12:05:45.581Z,2.40
2022-08-11T12:08:15.969Z,2.40
2022-08-11T12:11:20.490Z,2.47
2022-08-11T12:13:51.838Z,2.50
2022-08-11T12:16:33.722Z,2.60
2022-08-11T12:19:05.996Z,2.38
2022-08-11T12:21:35.112Z,2.40
2022-08-11T12:24:20.991Z,2.42
2022-08-11T12:27:16.794Z,2.53
2022-08-11T12:29:35.354Z,2.50
2022-08-11T12:32:07.222Z,2.72
2022-08-11T12:34:33.817Z,2.50
2022-08-11T12:37:05.565Z,2.55
2022-08-11T12:40:12.931Z,2.60
2022-08-11T12:43:04.014Z,2.58
2022-08-11T12:45:33.247Z,2.30
2022-08-11T12:48:59.879Z,2.60
2022-08-11T12:52:01.619Z,2.80
2022-08-11T12:54:34.966Z,2.60
2022-08-11T12:57:37.491Z,2.60
2022-08-11T13:00:30.940Z,2.50
2022-08-11T13:03:16.515Z,2.60
2022-08-11T13:05:45.855Z,2.70
2022-08-11T13:08:15.331Z,2.50
2022-08-11T13:11:01.791Z,2.53
2022-08-11T13:13:55.649Z,2.40
2022-08-11T13:16:17.535Z,2.40
2022-08-11T13:18:44.649Z,2.80
2022-08-11T13:21:19.939Z,2.60
2022-08-11T13:24:00.734Z,2.58
2022-08-11T13:26:48.416Z,2.33
2022-08-11T13:29:28.138Z,2.30
2022-08-11T13:31:58.283Z,2.30
2022-08-11T13:34:26.837Z,2.58
2022-08-11T13:36:55.748Z,2.53
2022-08-11T13:39:25.861Z,2.60
2022-08-11T13:41:59.306Z,2.40
2022-08-11T13:44:31.339Z,2.40
2022-08-11T13:47:01.488Z,2.50
2022-08-11T13:49:30.905Z,2.30
2022-08-11T13:51:58.693Z,2.35
2022-08-11T13:54:37.654Z,2.50
2022-08-11T13:57:13.843Z,2.50
2022-08-11T14:00:09.675Z,2.30
2022-08-11T14:02:43.464Z,2.17
2022-08-11T14:05:22.631Z,2.20
2022-08-11T14:07:59.746Z,2.63
2022-08-11T14:10:30.151Z,2.35
2022-08-11T14:13:20.954Z,2.20
2022-08-11T14:15:49.936Z,2.38
2022-08-11T14:18:26.473Z,2.13
2022-08-11T14:21:14.614Z,2.30
2022-08-11T14:23:50.273Z,2.28
2022-08-11T14:29:09.658Z,2.58
2022-08-11T14:31:40.522Z,2.50
2022-08-11T14:34:10.427Z,2.45
2022-08-11T14:36:39.896Z,2.50
2022-08-11T14:39:12.682Z,2.30
2022-08-11T14:42:10.960Z,2.10
2022-08-11T14:45:01.427Z,2.03
2022-08-11T14:47:31.674Z,2.72
2022-08-11T14:50:12.338Z,2.75
2022-08-11T14:52:57.848Z,2.40
2022-08-11T14:55:45.929Z,2.50
2022-08-11T14:58:17.375Z,3.20
2022-08-11T15:00:44.662Z,2.90
2022-08-11T15:03:14.187Z,2.58
2022-08-11T15:05:55.951Z,2.60
2022-08-11T15:08:47.659Z,2.45
2022-08-11T15:11:34.800Z,2.40
2022-08-11T15:14:03.442Z,2.35
2022-08-11T15:16:49.465Z,2.40
2022-08-11T15:19:21.289Z,2.38
2022-08-11T15:22:08.244Z,2.20
2022-08-11T15:24:36.637Z,2.33
2022-08-11T15:27:30.844Z,2.50
2022-08-11T15:30:32.784Z,2.20
2022-08-11T15:33:24.430Z,2.10
2022-08-11T15:36:11.080Z,2.20
2022-08-11T15:38:43.947Z,2.42
2022-08-11T15:41:34.129Z,2.17
2022-08-11T15:44:51.439Z,2.20
2022-08-11T15:47:18.464Z,2.20
2022-08-11T15:50:11.459Z,2.10
2022-08-11T15:52:44.818Z,2.20
2022-08-11T15:55:11.384Z,2.20
2022-08-11T15:57:59.220Z,2.20
2022-08-11T16:00:45.528Z,2.03
2022-08-11T16:04:06.271Z,2.08
2022-08-11T16:06:19.888Z,2.10
2022-08-11T16:08:52.597Z,2.10
2022-08-11T16:11:20.231Z,2.08
2022-08-11T16:13:47.950Z,2.30
2022-08-11T16:16:16.150Z,2.30
2022-08-11T16:18:51.900Z,2.30
2022-08-11T16:21:34.342Z,2.70
2022-08-11T16:27:11.373Z,2.20
2022-08-11T16:29:19.423Z,2.40
2022-08-11T16:32:06.949Z,2.13
2022-08-11T16:34:53.344Z,2.50
2022-08-11T16:37:42.131Z,2.50
2022-08-11T16:40:09.884Z,2.50
2022-08-11T16:43:08.575Z,2.40
2022-08-11T16:45:58.881Z,2.60
2022-08-11T16:48:35.518Z,2.38
2022-08-11T16:51:10.358Z,2.33
2022-08-11T16:53:59.694Z,2.33
2022-08-11T16:56:50.586Z,2.60
2022-08-11T16:59:22.497Z,2.10
2022-08-11T17:02:35.165Z,2.10
2022-08-11T17:05:26.506Z,2.30
2022-08-11T17:08:19.133Z,2.35
2022-08-11T17:11:11.737Z,2.35
2022-08-11T17:13:44.583Z,2.20
2022-08-11T17:16:13.225Z,2.15
2022-08-11T17:19:05.073Z,2.10
2022-08-11T17:21:34.553Z,2.20
2022-08-11T17:24:09.496Z,2.20
2022-08-11T17:26:59.866Z,2.20
2022-08-11T17:29:53.550Z,2.10
2022-08-11T17:32:57.159Z,2.28
2022-08-11T17:35:32.808Z,2.25
2022-08-11T17:38:15.866Z,2.20
2022-08-11T17:41:06.729Z,2.03
2022-08-11T17:43:52.834Z,1.95
2022-08-11T17:46:38.985Z,2.10
2022-08-11T17:49:08.747Z,1.90
2022-08-11T17:51:55.335Z,2.30
2022-08-11T17:54:42.419Z,2.00
2022-08-11T17:57:29.858Z,2.03
2022-08-11T17:59:58.563Z,2.03
2022-08-11T18:03:01.469Z,2.10
2022-08-11T18:05:30.751Z,2.38
2022-08-11T18:08:17.841Z,1.92
2022-08-11T18:11:04.896Z,2.00
2022-08-11T18:13:55.561Z,2.13
2022-08-11T18:16:41.786Z,2.10
2022-08-11T18:19:30.646Z,2.30
2022-08-11T18:22:34.257Z,2.40
2022-08-11T18:25:27.187Z,2.35
2022-08-11T18:28:13.925Z,2.55
2022-08-11T18:31:04.180Z,2.50
2022-08-11T18:34:08.220Z,2.40
2022-08-11T18:37:09.736Z,2.22
2022-08-11T18:40:11.094Z,2.50
2022-08-11T18:42:59.407Z,2.58
2022-08-11T18:45:45.801Z,2.25
2022-08-11T18:48:37.141Z,2.70
2022-08-11T18:51:31.672Z,2.70
2022-08-11T18:54:27.238Z,2.80
2022-08-11T18:57:15.048Z,2.50
2022-08-11T19:00:02.529Z,2.58
2022-08-11T19:02:50.443Z,2.58
2022-08-11T19:06:32.175Z,2.60
2022-08-11T19:08:46.696Z,2.50
2022-08-11T19:11:33.845Z,2.45
2022-08-11T19:14:21.691Z,2.85
2022-08-11T19:17:09.863Z,2.70
2022-08-11T19:19:57.367Z,2.78
2022-08-11T19:22:44.965Z,2.78
2022-08-11T19:25:31.357Z,2.80
2022-08-11T19:28:16.686Z,2.70
2022-08-11T19:31:04.837Z,3.10
2022-08-11T19:34:09.535Z,2.40
2022-08-11T19:36:56.774Z,2.47
2022-08-11T19:39:44.113Z,2.30
2022-08-11T19:42:31.263Z,2.40
2022-08-11T19:45:19.459Z,2.70
2022-08-11T19:48:30.669Z,2.83
2022-08-11T19:51:12.739Z,2.80
2022-08-11T19:54:02.358Z,2.80
2022-08-11T19:56:48.461Z,3.28
2022-08-11T19:59:37.211Z,3.20
2022-08-11T20:02:24.066Z,2.90
2022-08-11T20:05:12.410Z,2.78
2022-08-11T20:07:58.510Z,2.30
2022-08-11T20:10:45.296Z,2.10
2022-08-11T20:13:32.502Z,2.30
2022-08-11T20:16:19.246Z,2.42
2022-08-11T20:19:08.927Z,2.20
2022-08-11T20:21:56.470Z,2.42
2022-08-11T20:24:43.041Z,2.25
2022-08-11T20:27:28.491Z,2.30
2022-08-11T20:30:17.810Z,2.33
2022-08-11T20:33:03.551Z,2.90
2022-08-11T20:35:51.365Z,2.85
2022-08-11T20:38:40.683Z,2.90
2022-08-11T20:41:28.921Z,3.30
2022-08-11T20:44:15.723Z,3.28
2022-08-11T20:47:02.374Z,3.30
2022-08-11T20:49:56.582Z,3.10
2022-08-11T20:52:48.614Z,2.92
2022-08-11T20:55:46.108Z,2.95
2022-08-11T20:59:13.478Z,2.70
2022-08-11T21:01:45.415Z,2.60
2022-08-11T21:04:30.714Z,2.40
2022-08-11T21:07:27.954Z,2.58
2022-08-11T21:10:22.860Z,2.50
2022-08-11T21:13:25.916Z,2.50
2022-08-11T21:16:16.411Z,2.40
2022-08-11T21:19:14.194Z,2.55
2022-08-11T21:22:00.437Z,2.50
2022-08-11T21:24:48.204Z,2.63
2022-08-11T21:27:36.694Z,2.60
2022-08-11T21:30:23.100Z,2.60
2022-08-11T21:33:10.375Z,2.42
2022-08-11T21:35:55.982Z,2.50
2022-08-11T21:38:41.148Z,2.70
2022-08-11T21:41:26.645Z,2.70
2022-08-11T21:44:13.201Z,2.65
2022-08-11T21:46:59.143Z,2.63
2022-08-11T21:49:45.350Z,2.58
2022-08-11T21:52:31.094Z,3.00
2022-08-11T21:55:16.837Z,2.72
2022-08-11T21:58:04.143Z,2.58
2022-08-11T22:00:49.347Z,2.75
2022-08-11T22:03:49.934Z,2.70
2022-08-11T22:06:36.224Z,2.60
2022-08-11T22:09:22.331Z,2.95
2022-08-11T22:12:33.951Z,2.70
2022-08-11T22:15:14.001Z,2.70
2022-08-11T22:17:59.248Z,2.55
2022-08-11T22:20:48.466Z,2.63
2022-08-11T22:23:36.130Z,2.85
2022-08-11T22:26:22.420Z,2.80
2022-08-11T22:29:10.672Z,2.60
2022-08-11T22:31:57.494Z,2.72
2022-08-11T22:34:52.744Z,2.65
2022-08-11T22:37:40.905Z,2.70
2022-08-11T22:40:28.707Z,2.67
2022-08-11T22:43:14.412Z,2.50
2022-08-11T22:45:59.639Z,2.75
2022-08-11T22:48:47.393Z,2.80
2022-08-11T22:51:34.018Z,2.58
2022-08-11T22:54:21.913Z,2.70
2022-08-11T22:57:08.098Z,2.60
2022-08-11T22:59:55.194Z,2.60
2022-08-11T23:02:41.192Z,2.80
2022-08-11T23:05:27.579Z,2.75
2022-08-11T23:08:14.756Z,2.67
2022-08-11T23:11:00.938Z,2.75
2022-08-11T23:13:48.881Z,2.60
2022-08-11T23:16:34.673Z,2.70
2022-08-11T23:20:04.706Z,2.90
2022-08-11T23:22:36.710Z,3.00
2022-08-11T23:25:32.717Z,2.80
2022-08-11T23:28:20.017Z,2.85
2022-08-11T23:31:06.160Z,3.03
2022-08-11T23:33:53.433Z,3.25
2022-08-11T23:36:47.636Z,2.90
2022-08-11T23:39:34.594Z,3.05
2022-08-11T23:42:21.148Z,2.70
2022-08-11T23:45:07.166Z,3.20
2022-08-11T23:47:56.789Z,3.00
2022-08-11T23:50:43.474Z,3.13
2022-08-11T23:53:28.546Z,2.85
2022-08-11T23:56:13.601Z,3.33
2022-08-11T23:58:59.250Z,2.90
